sensor_id;sensor_type;location;lat;lon;timestamp;pressure;altitude;pressure_sealevel;temperature;humidity
61474;BME280;53694;49.784;30.150;2023-07-31T00:00:53;98944.10;;;21.85;75.00
61474;BME280;53694;49.784;30.150;2023-07-31T00:01:54;98949.69;;;21.85;75.06
61474;BME280;53694;49.784;30.150;2023-07-31T00:02:56;98954.94;;;21.83;75.08
61474;BME280;53694;49.784;30.150;2023-07-31T00:03:58;98950.59;;;21.82;75.02
61474;BME280;53694;49.784;30.150;2023-07-31T00:05:01;98949.50;;;21.80;74.89
61474;BME280;53694;49.784;30.150;2023-07-31T00:06:03;98953.98;;;21.77;75.15
61474;BME280;53694;49.784;30.150;2023-07-31T00:07:05;98951.30;;;21.74;75.06
61474;BME280;53694;49.784;30.150;2023-07-31T00:08:06;98955.80;;;21.71;75.24
61474;BME280;53694;49.784;30.150;2023-07-31T00:09:08;98955.14;;;21.67;75.47
61474;BME280;53694;49.784;30.150;2023-07-31T00:10:09;98945.33;;;21.62;75.61
61474;BME280;53694;49.784;30.150;2023-07-31T00:11:11;98952.91;;;21.62;76.05
61474;BME280;53694;49.784;30.150;2023-07-31T00:12:13;98954.80;;;21.65;76.17
61474;BME280;53694;49.784;30.150;2023-07-31T00:13:14;98947.97;;;21.66;75.71
61474;BME280;53694;49.784;30.150;2023-07-31T00:14:16;98947.66;;;21.64;75.07
61474;BME280;53694;49.784;30.150;2023-07-31T00:15:17;98951.70;;;21.63;75.32
61474;BME280;53694;49.784;30.150;2023-07-31T00:16:19;98950.11;;;21.62;75.13
61474;BME280;53694;49.784;30.150;2023-07-31T00:17:20;98950.11;;;21.62;75.26
61474;BME280;53694;49.784;30.150;2023-07-31T00:18:22;98950.45;;;21.64;75.38
61474;BME280;53694;49.784;30.150;2023-07-31T00:19:23;98952.66;;;21.69;75.26
61474;BME280;53694;49.784;30.150;2023-07-31T00:20:25;98950.52;;;21.73;75.19
61474;BME280;53694;49.784;30.150;2023-07-31T00:21:27;98955.53;;;21.78;75.28
61474;BME280;53694;49.784;30.150;2023-07-31T00:22:28;98949.04;;;21.81;74.90
61474;BME280;53694;49.784;30.150;2023-07-31T00:23:30;98945.00;;;21.82;74.97
61474;BME280;53694;49.784;30.150;2023-07-31T00:24:31;98947.80;;;21.82;74.18
61474;BME280;53694;49.784;30.150;2023-07-31T00:25:33;98947.80;;;21.82;74.18
61474;BME280;53694;49.784;30.150;2023-07-31T00:26:34;98945.34;;;21.84;74.63
61474;BME280;53694;49.784;30.150;2023-07-31T00:27:36;98945.66;;;21.86;74.63
61474;BME280;53694;49.784;30.150;2023-07-31T00:28:37;98944.41;;;21.87;74.55
61474;BME280;53694;49.784;30.150;2023-07-31T00:29:39;98952.48;;;21.85;74.22
61474;BME280;53694;49.784;30.150;2023-07-31T00:30:41;98960.22;;;21.81;74.27
61474;BME280;53694;49.784;30.150;2023-07-31T00:31:42;98959.91;;;21.79;74.50
61474;BME280;53694;49.784;30.150;2023-07-31T00:32:44;98957.67;;;21.74;74.68
61474;BME280;53694;49.784;30.150;2023-07-31T00:34:47;98960.80;;;21.76;75.30
61474;BME280;53694;49.784;30.150;2023-07-31T00:35:48;98958.78;;;21.77;75.11
61474;BME280;53694;49.784;30.150;2023-07-31T00:36:50;98960.15;;;21.72;75.34
61474;BME280;53694;49.784;30.150;2023-07-31T00:37:51;98954.38;;;21.66;75.56
61474;BME280;53694;49.784;30.150;2023-07-31T00:38:53;98960.98;;;21.60;75.77
61474;BME280;53694;49.784;30.150;2023-07-31T00:39:54;98955.05;;;21.58;75.92
61474;BME280;53694;49.784;30.150;2023-07-31T00:40:56;98955.51;;;21.56;76.15
61474;BME280;53694;49.784;30.150;2023-07-31T00:41:57;98957.06;;;21.57;76.00
61474;BME280;53694;49.784;30.150;2023-07-31T00:42:59;98955.70;;;21.62;76.08
61474;BME280;53694;49.784;30.150;2023-07-31T00:44:00;98959.95;;;21.66;76.13
61474;BME280;53694;49.784;30.150;2023-07-31T00:45:02;98943.70;;;21.74;76.04
61474;BME280;53694;49.784;30.150;2023-07-31T00:46:04;98954.63;;;21.81;75.75
61474;BME280;53694;49.784;30.150;2023-07-31T00:47:06;98959.04;;;21.91;75.37
61474;BME280;53694;49.784;30.150;2023-07-31T00:48:07;98961.59;;;21.99;74.99
61474;BME280;53694;49.784;30.150;2023-07-31T00:49:10;98957.77;;;22.05;74.70
61474;BME280;53694;49.784;30.150;2023-07-31T00:50:13;98954.81;;;22.09;74.39
61474;BME280;53694;49.784;30.150;2023-07-31T00:51:15;98950.80;;;22.10;74.13
61474;BME280;53694;49.784;30.150;2023-07-31T00:52:18;98958.41;;;22.09;74.18
61474;BME280;53694;49.784;30.150;2023-07-31T00:53:20;98954.50;;;22.07;74.27
61474;BME280;53694;49.784;30.150;2023-07-31T00:54:21;98952.95;;;22.06;74.55
61474;BME280;53694;49.784;30.150;2023-07-31T00:55:23;98954.81;;;22.09;74.63
61474;BME280;53694;49.784;30.150;2023-07-31T00:56:25;98942.31;;;22.13;74.63
61474;BME280;53694;49.784;30.150;2023-07-31T00:57:27;98942.03;;;22.20;74.55
61474;BME280;53694;49.784;30.150;2023-07-31T00:58:29;98941.77;;;22.28;74.40
61474;BME280;53694;49.784;30.150;2023-07-31T00:59:30;98946.30;;;22.34;74.11
61474;BME280;53694;49.784;30.150;2023-07-31T01:00:32;98940.44;;;22.41;73.91
61474;BME280;53694;49.784;30.150;2023-07-31T01:01:33;98943.41;;;22.47;73.73
61474;BME280;53694;49.784;30.150;2023-07-31T01:02:35;98934.44;;;22.52;73.72
61474;BME280;53694;49.784;30.150;2023-07-31T01:03:37;98942.23;;;22.57;73.42
61474;BME280;53694;49.784;30.150;2023-07-31T01:04:39;98935.72;;;22.60;73.39
61474;BME280;53694;49.784;30.150;2023-07-31T01:08:31;98947.99;;;22.63;72.00
61474;BME280;53694;49.784;30.150;2023-07-31T01:10:51;98937.58;;;22.63;71.44
61474;BME280;53694;49.784;30.150;2023-07-31T01:12:00;98936.50;;;22.61;71.01
61474;BME280;53694;49.784;30.150;2023-07-31T01:13:02;98940.34;;;22.54;71.03
61474;BME280;53694;49.784;30.150;2023-07-31T01:14:04;98945.62;;;22.52;71.71
61474;BME280;53694;49.784;30.150;2023-07-31T01:15:08;98940.03;;;22.52;71.64
61474;BME280;53694;49.784;30.150;2023-07-31T01:16:10;98940.47;;;22.51;71.80
61474;BME280;53694;49.784;30.150;2023-07-31T01:17:11;98948.87;;;22.51;71.65
61474;BME280;53694;49.784;30.150;2023-07-31T01:18:13;98945.43;;;22.46;71.20
61474;BME280;53694;49.784;30.150;2023-07-31T01:19:15;98946.03;;;22.41;71.02
61474;BME280;53694;49.784;30.150;2023-07-31T01:20:21;98938.23;;;22.36;71.12
61474;BME280;53694;49.784;30.150;2023-07-31T01:25:20;98929.25;;;22.41;71.29
61474;BME280;53694;49.784;30.150;2023-07-31T01:26:21;98926.48;;;22.51;71.06
61474;BME280;53694;49.784;30.150;2023-07-31T01:27:34;98928.70;;;22.56;70.96
61474;BME280;53694;49.784;30.150;2023-07-31T01:29:07;98934.14;;;22.59;70.87
61474;BME280;53694;49.784;30.150;2023-07-31T01:30:10;98927.77;;;22.59;70.83
61474;BME280;53694;49.784;30.150;2023-07-31T01:31:15;98929.02;;;22.58;71.05
61474;BME280;53694;49.784;30.150;2023-07-31T01:32:18;98933.36;;;22.59;70.80
61474;BME280;53694;49.784;30.150;2023-07-31T01:33:20;98934.61;;;22.58;70.70
61474;BME280;53694;49.784;30.150;2023-07-31T01:34:22;98927.27;;;22.51;70.99
61474;BME280;53694;49.784;30.150;2023-07-31T01:35:25;98936.39;;;22.42;70.86
61474;BME280;53694;49.784;30.150;2023-07-31T01:36:27;98936.39;;;22.42;70.86
61474;BME280;53694;49.784;30.150;2023-07-31T01:37:29;98937.77;;;22.38;70.76
61474;BME280;53694;49.784;30.150;2023-07-31T01:38:31;98938.38;;;22.33;70.82
61474;BME280;53694;49.784;30.150;2023-07-31T01:39:33;98934.63;;;22.27;70.37
61474;BME280;53694;49.784;30.150;2023-07-31T01:40:34;98939.70;;;22.19;70.29
61474;BME280;53694;49.784;30.150;2023-07-31T01:41:36;98933.46;;;22.15;71.01
61474;BME280;53694;49.784;30.150;2023-07-31T01:42:37;98941.38;;;22.16;71.39
61474;BME280;53694;49.784;30.150;2023-07-31T01:43:39;98927.09;;;22.14;71.69
61474;BME280;53694;49.784;30.150;2023-07-31T01:44:40;98937.03;;;22.15;72.04
61474;BME280;53694;49.784;30.150;2023-07-31T01:45:42;98938.14;;;22.18;72.23
61474;BME280;53694;49.784;30.150;2023-07-31T01:46:44;98938.80;;;22.22;72.12
61474;BME280;53694;49.784;30.150;2023-07-31T01:47:45;98941.90;;;22.24;72.00
61474;BME280;53694;49.784;30.150;2023-07-31T01:48:46;98938.20;;;22.27;71.96
61474;BME280;53694;49.784;30.150;2023-07-31T01:49:48;98938.97;;;22.28;71.86
61474;BME280;53694;49.784;30.150;2023-07-31T01:50:50;98942.55;;;22.28;71.93
61474;BME280;53694;49.784;30.150;2023-07-31T01:51:51;98944.88;;;22.30;71.99
61474;BME280;53694;49.784;30.150;2023-07-31T01:52:53;98936.95;;;22.28;72.37
61474;BME280;53694;49.784;30.150;2023-07-31T01:53:54;98945.68;;;22.30;72.37
61474;BME280;53694;49.784;30.150;2023-07-31T01:54:56;98943.19;;;22.32;72.39
61474;BME280;53694;49.784;30.150;2023-07-31T01:55:57;98945.08;;;22.35;72.44
61474;BME280;53694;49.784;30.150;2023-07-31T01:56:59;98952.23;;;22.36;72.53
61474;BME280;53694;49.784;30.150;2023-07-31T01:58:01;98952.53;;;22.38;72.56
61474;BME280;53694;49.784;30.150;2023-07-31T01:59:02;98946.16;;;22.38;72.56
61474;BME280;53694;49.784;30.150;2023-07-31T02:00:05;98955.02;;;22.36;72.42
61474;BME280;53694;49.784;30.150;2023-07-31T02:01:07;98952.70;;;22.35;72.55
61474;BME280;53694;49.784;30.150;2023-07-31T02:02:08;98953.13;;;22.33;72.49
61474;BME280;53694;49.784;30.150;2023-07-31T02:03:10;98947.23;;;22.31;72.59
61474;BME280;53694;49.784;30.150;2023-07-31T02:04:11;98960.56;;;22.27;72.78
61474;BME280;53694;49.784;30.150;2023-07-31T02:05:13;98964.27;;;22.24;72.96
61474;BME280;53694;49.784;30.150;2023-07-31T02:06:15;98960.83;;;22.20;72.19
61474;BME280;53694;49.784;30.150;2023-07-31T02:07:16;98962.77;;;22.10;72.09
61474;BME280;53694;49.784;30.150;2023-07-31T02:08:17;98962.77;;;22.10;72.09
61474;BME280;53694;49.784;30.150;2023-07-31T02:09:19;98964.13;;;22.06;72.51
61474;BME280;53694;49.784;30.150;2023-07-31T02:10:21;98963.02;;;22.03;72.77
61474;BME280;53694;49.784;30.150;2023-07-31T02:11:22;98957.89;;;22.02;72.77
61474;BME280;53694;49.784;30.150;2023-07-31T02:12:24;98963.61;;;21.98;72.92
61474;BME280;53694;49.784;30.150;2023-07-31T02:13:25;98962.83;;;21.98;73.29
61474;BME280;53694;49.784;30.150;2023-07-31T02:14:27;98951.64;;;21.98;73.38
61474;BME280;53694;49.784;30.150;2023-07-31T02:15:28;98944.50;;;21.96;73.50
61474;BME280;53694;49.784;30.150;2023-07-31T02:16:30;98944.50;;;21.96;73.50
61474;BME280;53694;49.784;30.150;2023-07-31T02:17:31;98950.75;;;22.01;73.50
61474;BME280;53694;49.784;30.150;2023-07-31T02:18:33;98951.52;;;22.01;73.50
61474;BME280;53694;49.784;30.150;2023-07-31T02:19:35;98945.47;;;22.03;73.54
61474;BME280;53694;49.784;30.150;2023-07-31T02:20:36;98945.34;;;22.06;73.47
61474;BME280;53694;49.784;30.150;2023-07-31T02:21:38;98943.31;;;22.07;73.13
61474;BME280;53694;49.784;30.150;2023-07-31T02:22:39;98948.00;;;22.10;73.19
61474;BME280;53694;49.784;30.150;2023-07-31T02:23:41;98947.36;;;22.06;72.85
61474;BME280;53694;49.784;30.150;2023-07-31T02:24:42;98955.41;;;22.04;72.93
61474;BME280;53694;49.784;30.150;2023-07-31T02:25:45;98945.93;;;22.01;73.11
61474;BME280;53694;49.784;30.150;2023-07-31T02:26:46;98950.75;;;22.01;73.24
61474;BME280;53694;49.784;30.150;2023-07-31T02:27:48;98943.85;;;21.92;73.30
61474;BME280;53694;49.784;30.150;2023-07-31T02:28:49;98943.85;;;21.92;73.30
61474;BME280;53694;49.784;30.150;2023-07-31T02:29:51;98948.20;;;21.93;73.56
61474;BME280;53694;49.784;30.150;2023-07-31T02:30:52;98943.70;;;21.96;73.59
61474;BME280;53694;49.784;30.150;2023-07-31T02:31:54;98944.50;;;21.96;73.55
61474;BME280;53694;49.784;30.150;2023-07-31T02:32:55;98943.57;;;22.00;73.57
61474;BME280;53694;49.784;30.150;2023-07-31T02:33:56;98947.48;;;22.02;73.48
61474;BME280;53694;49.784;30.150;2023-07-31T02:34:58;98946.11;;;22.07;73.35
61474;BME280;53694;49.784;30.150;2023-07-31T02:36:00;98948.69;;;22.14;73.09
61474;BME280;53694;49.784;30.150;2023-07-31T02:37:01;98948.69;;;22.14;73.09
61474;BME280;53694;49.784;30.150;2023-07-31T02:38:03;98956.48;;;22.19;72.81
61474;BME280;53694;49.784;30.150;2023-07-31T02:39:04;98958.80;;;22.20;72.48
61474;BME280;53694;49.784;30.150;2023-07-31T02:40:07;98948.73;;;22.23;72.61
61474;BME280;53694;49.784;30.150;2023-07-31T02:41:09;98954.64;;;22.25;72.46
61474;BME280;53694;49.784;30.150;2023-07-31T02:42:10;98950.75;;;22.23;71.83
61474;BME280;53694;49.784;30.150;2023-07-31T02:43:12;98950.75;;;22.23;71.83
61474;BME280;53694;49.784;30.150;2023-07-31T02:44:14;98958.03;;;22.20;71.51
61474;BME280;53694;49.784;30.150;2023-07-31T02:45:15;98961.20;;;22.14;71.63
61474;BME280;53694;49.784;30.150;2023-07-31T02:46:17;98961.20;;;22.09;72.01
61474;BME280;53694;49.784;30.150;2023-07-31T02:47:19;98962.70;;;22.01;71.70
61474;BME280;53694;49.784;30.150;2023-07-31T02:48:20;98960.16;;;21.94;71.91
61474;BME280;53694;49.784;30.150;2023-07-31T02:49:22;98967.11;;;21.89;72.16
61474;BME280;53694;49.784;30.150;2023-07-31T02:50:23;98970.81;;;21.86;72.46
61474;BME280;53694;49.784;30.150;2023-07-31T02:51:25;98964.91;;;21.84;72.76
61474;BME280;53694;49.784;30.150;2023-07-31T02:52:26;98963.67;;;21.85;73.27
61474;BME280;53694;49.784;30.150;2023-07-31T02:53:28;98965.56;;;21.88;73.33
61474;BME280;53694;49.784;30.150;2023-07-31T02:54:29;98965.28;;;21.95;73.24
61474;BME280;53694;49.784;30.150;2023-07-31T02:55:31;98965.03;;;22.03;72.98
61474;BME280;53694;49.784;30.150;2023-07-31T02:56:32;98967.11;;;22.11;72.53
61474;BME280;53694;49.784;30.150;2023-07-31T02:57:34;98972.92;;;22.17;72.20
61474;BME280;53694;49.784;30.150;2023-07-31T02:58:35;98966.77;;;22.22;72.00
61474;BME280;53694;49.784;30.150;2023-07-31T02:59:37;98972.66;;;22.24;72.01
61474;BME280;53694;49.784;30.150;2023-07-31T03:00:44;98963.50;;;22.24;72.04
61474;BME280;53694;49.784;30.150;2023-07-31T03:01:45;98969.86;;;22.24;71.98
61474;BME280;53694;49.784;30.150;2023-07-31T03:02:47;98984.19;;;22.26;71.94
61474;BME280;53694;49.784;30.150;2023-07-31T03:03:49;98969.09;;;22.24;71.98
61474;BME280;53694;49.784;30.150;2023-07-31T03:04:50;98973.13;;;22.23;72.17
61474;BME280;53694;49.784;30.150;2023-07-31T03:05:52;98974.34;;;22.21;72.15
61474;BME280;53694;49.784;30.150;2023-07-31T03:06:53;98972.79;;;22.20;72.50
61474;BME280;53694;49.784;30.150;2023-07-31T03:07:55;98971.11;;;22.23;72.37
61474;BME280;53694;49.784;30.150;2023-07-31T03:08:56;98968.95;;;22.27;72.30
61474;BME280;53694;49.784;30.150;2023-07-31T03:09:58;98976.75;;;22.32;72.11
61474;BME280;53694;49.784;30.150;2023-07-31T03:11:00;98977.40;;;22.36;71.98
61474;BME280;53694;49.784;30.150;2023-07-31T03:12:01;98978.05;;;22.40;71.78
61474;BME280;53694;49.784;30.150;2023-07-31T03:13:03;98983.52;;;22.44;71.82
61474;BME280;53694;49.784;30.150;2023-07-31T03:14:04;98980.58;;;22.48;71.47
61474;BME280;53694;49.784;30.150;2023-07-31T03:15:07;98979.64;;;22.51;71.41
61474;BME280;53694;49.784;30.150;2023-07-31T03:16:09;98981.66;;;22.50;71.07
61474;BME280;53694;49.784;30.150;2023-07-31T03:17:10;98973.74;;;22.49;71.33
61474;BME280;53694;49.784;30.150;2023-07-31T03:18:12;98978.09;;;22.50;71.17
61474;BME280;53694;49.784;30.150;2023-07-31T03:19:13;98966.91;;;22.50;71.36
61474;BME280;53694;49.784;30.150;2023-07-31T03:20:15;98967.23;;;22.52;71.36
61474;BME280;53694;49.784;30.150;2023-07-31T03:21:16;98974.05;;;22.51;71.43
61474;BME280;53694;49.784;30.150;2023-07-31T03:22:18;98971.59;;;22.53;71.44
61474;BME280;53694;49.784;30.150;2023-07-31T03:23:19;98968.79;;;22.53;71.31
61474;BME280;53694;49.784;30.150;2023-07-31T03:24:21;98963.97;;;22.53;71.51
61474;BME280;53694;49.784;30.150;2023-07-31T03:25:22;98965.52;;;22.54;71.47
61474;BME280;53694;49.784;30.150;2023-07-31T03:26:24;98957.77;;;22.58;71.47
61474;BME280;53694;49.784;30.150;2023-07-31T03:27:25;98952.81;;;22.62;71.23
61474;BME280;53694;49.784;30.150;2023-07-31T03:28:27;98948.33;;;22.65;70.81
61474;BME280;53694;49.784;30.150;2023-07-31T03:29:28;98948.33;;;22.65;70.85
61474;BME280;53694;49.784;30.150;2023-07-31T03:30:30;98957.16;;;22.63;71.04
61474;BME280;53694;49.784;30.150;2023-07-31T03:31:32;98958.88;;;22.61;70.73
61474;BME280;53694;49.784;30.150;2023-07-31T03:32:33;98959.80;;;22.58;70.98
61474;BME280;53694;49.784;30.150;2023-07-31T03:33:35;98959.92;;;22.54;71.40
61474;BME280;53694;49.784;30.150;2023-07-31T03:34:36;98967.08;;;22.55;71.80
61474;BME280;53694;49.784;30.150;2023-07-31T03:35:38;98965.39;;;22.58;71.47
61474;BME280;53694;49.784;30.150;2023-07-31T03:36:40;98963.84;;;22.57;71.29
61474;BME280;53694;49.784;30.150;2023-07-31T03:37:41;98970.68;;;22.56;71.51
61474;BME280;53694;49.784;30.150;2023-07-31T03:38:43;98961.81;;;22.57;71.38
61474;BME280;53694;49.784;30.150;2023-07-31T03:39:44;98963.70;;;22.60;71.47
61474;BME280;53694;49.784;30.150;2023-07-31T03:40:46;98965.26;;;22.61;71.22
61474;BME280;53694;49.784;30.150;2023-07-31T03:41:47;98965.90;;;22.65;71.14
61474;BME280;53694;49.784;30.150;2023-07-31T03:42:49;98961.72;;;22.70;70.91
61474;BME280;53694;49.784;30.150;2023-07-31T03:43:51;98964.82;;;22.72;70.79
61474;BME280;53694;49.784;30.150;2023-07-31T03:44:52;98971.06;;;22.76;70.76
61474;BME280;53694;49.784;30.150;2023-07-31T03:45:54;98969.23;;;22.82;70.56
61474;BME280;53694;49.784;30.150;2023-07-31T03:46:56;98974.53;;;22.89;70.25
61474;BME280;53694;49.784;30.150;2023-07-31T03:47:57;98973.34;;;22.90;69.91
61474;BME280;53694;49.784;30.150;2023-07-31T03:48:59;98978.47;;;22.92;70.01
61474;BME280;53694;49.784;30.150;2023-07-31T03:50:00;98977.69;;;22.91;69.98
61474;BME280;53694;49.784;30.150;2023-07-31T03:51:02;98969.09;;;22.86;70.03
61474;BME280;53694;49.784;30.150;2023-07-31T03:52:04;98981.03;;;22.77;70.30
61474;BME280;53694;49.784;30.150;2023-07-31T03:53:05;98980.33;;;22.64;70.63
61474;BME280;53694;49.784;30.150;2023-07-31T03:54:07;98982.14;;;22.49;71.14
61474;BME280;53694;49.784;30.150;2023-07-31T03:55:08;98983.00;;;22.36;71.61
61474;BME280;53694;49.784;30.150;2023-07-31T03:56:11;98985.92;;;22.33;72.03
61474;BME280;53694;49.784;30.150;2023-07-31T03:57:12;98981.88;;;22.34;72.29
61474;BME280;53694;49.784;30.150;2023-07-31T03:58:14;98983.64;;;22.40;72.25
61474;BME280;53694;49.784;30.150;2023-07-31T03:59:15;98982.91;;;22.49;71.95
61474;BME280;53694;49.784;30.150;2023-07-31T04:00:17;98988.69;;;22.55;71.95
61474;BME280;53694;49.784;30.150;2023-07-31T04:01:19;98982.82;;;22.62;72.03
61474;BME280;53694;49.784;30.150;2023-07-31T04:02:21;98984.11;;;22.70;71.81
61474;BME280;53694;49.784;30.150;2023-07-31T04:03:23;98991.90;;;22.75;71.66
61474;BME280;53694;49.784;30.150;2023-07-31T04:04:24;98992.54;;;22.79;71.25
61474;BME280;53694;49.784;30.150;2023-07-31T04:05:26;98993.18;;;22.83;71.05
61474;BME280;53694;49.784;30.150;2023-07-31T04:06:27;98990.72;;;22.85;71.05
61474;BME280;53694;49.784;30.150;2023-07-31T04:07:29;98981.52;;;22.85;71.20
61474;BME280;53694;49.784;30.150;2023-07-31T04:08:30;98984.31;;;22.85;71.24
61474;BME280;53694;49.784;30.150;2023-07-31T04:09:32;98980.73;;;22.84;71.31
61474;BME280;53694;49.784;30.150;2023-07-31T04:10:34;98982.63;;;22.87;71.28
61474;BME280;53694;49.784;30.150;2023-07-31T04:11:35;98991.80;;;22.88;71.16
61474;BME280;53694;49.784;30.150;2023-07-31T04:12:37;98986.97;;;22.88;71.32
61474;BME280;53694;49.784;30.150;2023-07-31T04:13:38;98988.53;;;22.89;71.40
61474;BME280;53694;49.784;30.150;2023-07-31T04:14:40;98988.89;;;22.91;71.31
61474;BME280;53694;49.784;30.150;2023-07-31T04:15:42;98986.39;;;22.93;71.33
61474;BME280;53694;49.784;30.150;2023-07-31T04:16:43;98982.68;;;22.97;71.50
61474;BME280;53694;49.784;30.150;2023-07-31T04:17:45;98987.67;;;23.02;71.41
61474;BME280;53694;49.784;30.150;2023-07-31T04:18:46;98981.79;;;23.09;71.06
61474;BME280;53694;49.784;30.150;2023-07-31T04:19:48;98986.64;;;23.17;70.56
61474;BME280;53694;49.784;30.150;2023-07-31T04:20:50;98987.91;;;23.26;70.27
61474;BME280;53694;49.784;30.150;2023-07-31T04:21:51;98985.59;;;23.33;69.89
61474;BME280;53694;49.784;30.150;2023-07-31T04:22:53;98987.77;;;23.38;69.65
61474;BME280;53694;49.784;30.150;2023-07-31T04:23:54;98994.01;;;23.42;69.38
61474;BME280;53694;49.784;30.150;2023-07-31T04:24:56;98994.01;;;23.42;69.38
61474;BME280;53694;49.784;30.150;2023-07-31T04:25:57;98990.09;;;23.31;69.40
61474;BME280;53694;49.784;30.150;2023-07-31T04:26:59;98989.89;;;23.07;70.17
61474;BME280;53694;49.784;30.150;2023-07-31T04:28:01;98995.81;;;22.78;71.15
61474;BME280;53694;49.784;30.150;2023-07-31T04:29:02;98998.59;;;22.46;72.18
61474;BME280;53694;49.784;30.150;2023-07-31T04:30:06;98995.63;;;22.19;73.46
61474;BME280;53694;49.784;30.150;2023-07-31T04:31:07;98994.55;;;22.04;74.42
61474;BME280;53694;49.784;30.150;2023-07-31T04:32:09;98997.62;;;21.96;74.98
61474;BME280;53694;49.784;30.150;2023-07-31T04:33:11;98997.27;;;21.94;75.34
61474;BME280;53694;49.784;30.150;2023-07-31T04:34:12;98996.31;;;22.10;75.37
61474;BME280;53694;49.784;30.150;2023-07-31T04:35:14;98996.31;;;22.10;75.37
61474;BME280;53694;49.784;30.150;2023-07-31T04:36:16;98999.38;;;22.25;75.11
61474;BME280;53694;49.784;30.150;2023-07-31T04:37:17;98996.52;;;22.38;74.71
61474;BME280;53694;49.784;30.150;2023-07-31T04:38:20;98996.77;;;22.53;74.29
61474;BME280;53694;49.784;30.150;2023-07-31T04:39:22;98999.14;;;22.63;73.79
61474;BME280;53694;49.784;30.150;2023-07-31T04:40:24;98999.05;;;22.76;73.77
61474;BME280;53694;49.784;30.150;2023-07-31T04:41:26;98993.18;;;22.83;73.27
61474;BME280;53694;49.784;30.150;2023-07-31T04:42:27;99002.11;;;22.91;72.99
61474;BME280;53694;49.784;30.150;2023-07-31T04:43:29;98996.38;;;22.94;72.79
61474;BME280;53694;49.784;30.150;2023-07-31T04:44:30;99002.61;;;22.99;72.84
61474;BME280;53694;49.784;30.150;2023-07-31T04:45:32;99003.09;;;23.06;73.02
61474;BME280;53694;49.784;30.150;2023-07-31T04:46:33;98995.66;;;23.12;72.95
61474;BME280;53694;49.784;30.150;2023-07-31T04:47:35;99002.66;;;23.17;72.89
61474;BME280;53694;49.784;30.150;2023-07-31T04:48:36;98996.78;;;23.24;72.61
61474;BME280;53694;49.784;30.150;2023-07-31T04:49:38;99005.81;;;23.28;72.40
61474;BME280;53694;49.784;30.150;2023-07-31T04:50:40;99004.88;;;23.31;71.82
61474;BME280;53694;49.784;30.150;2023-07-31T04:51:41;99003.95;;;23.34;71.83
61474;BME280;53694;49.784;30.150;2023-07-31T04:52:43;99005.06;;;23.37;71.83
61474;BME280;53694;49.784;30.150;2023-07-31T04:53:44;99005.06;;;23.37;71.83
61474;BME280;53694;49.784;30.150;2023-07-31T04:54:46;99002.56;;;23.39;71.63
61474;BME280;53694;49.784;30.150;2023-07-31T04:55:47;99003.66;;;23.41;71.74
61474;BME280;53694;49.784;30.150;2023-07-31T04:56:49;99002.27;;;23.46;71.49
61474;BME280;53694;49.784;30.150;2023-07-31T04:57:51;99003.05;;;23.47;71.08
61474;BME280;53694;49.784;30.150;2023-07-31T04:58:52;99004.59;;;23.48;71.33
61474;BME280;53694;49.784;30.150;2023-07-31T04:59:54;99004.92;;;23.50;71.13
61474;BME280;53694;49.784;30.150;2023-07-31T05:00:55;99001.35;;;23.49;71.38
61474;BME280;53694;49.784;30.150;2023-07-31T05:01:57;99003.20;;;23.52;71.58
61474;BME280;53694;49.784;30.150;2023-07-31T05:02:58;99011.80;;;23.58;71.19
61474;BME280;53694;49.784;30.150;2023-07-31T05:04:00;99004.94;;;23.59;70.62
61474;BME280;53694;49.784;30.150;2023-07-31T05:05:01;99008.04;;;23.61;70.95
61474;BME280;53694;49.784;30.150;2023-07-31T05:06:03;99006.02;;;23.61;71.53
61474;BME280;53694;49.784;30.150;2023-07-31T05:07:05;99005.23;;;23.61;71.74
61474;BME280;53694;49.784;30.150;2023-07-31T05:08:07;99010.84;;;23.61;71.87
61474;BME280;53694;49.784;30.150;2023-07-31T05:09:08;99008.04;;;23.61;71.77
61474;BME280;53694;49.784;30.150;2023-07-31T05:10:10;99000.88;;;23.60;72.05
61474;BME280;53694;49.784;30.150;2023-07-31T05:11:12;99012.09;;;23.60;72.07
61474;BME280;53694;49.784;30.150;2023-07-31T05:12:14;99008.70;;;23.65;72.16
61474;BME280;53694;49.784;30.150;2023-07-31T05:13:15;99014.48;;;23.71;72.08
61474;BME280;53694;49.784;30.150;2023-07-31T05:14:17;99010.58;;;23.77;71.41
61474;BME280;53694;49.784;30.150;2023-07-31T05:15:18;99014.02;;;23.81;71.17
61474;BME280;53694;49.784;30.150;2023-07-31T05:16:20;99007.48;;;23.84;70.97
61474;BME280;53694;49.784;30.150;2023-07-31T05:17:21;99014.48;;;23.89;71.17
61474;BME280;53694;49.784;30.150;2023-07-31T05:18:23;99020.72;;;23.93;70.79
61474;BME280;53694;49.784;30.150;2023-07-31T05:19:24;99007.32;;;23.97;70.91
61474;BME280;53694;49.784;30.150;2023-07-31T05:20:26;99014.33;;;24.02;70.97
61474;BME280;53694;49.784;30.150;2023-07-31T05:21:28;99010.27;;;24.03;70.96
61474;BME280;53694;49.784;30.150;2023-07-31T05:22:29;99014.62;;;24.04;70.80
61474;BME280;53694;49.784;30.150;2023-07-31T05:23:31;99014.62;;;24.04;70.93
61474;BME280;53694;49.784;30.150;2023-07-31T05:24:32;99012.59;;;24.04;70.81
61474;BME280;53694;49.784;30.150;2023-07-31T05:25:34;99013.41;;;24.05;70.88
61474;BME280;53694;49.784;30.150;2023-07-31T05:26:35;99012.15;;;24.06;70.92
61474;BME280;53694;49.784;30.150;2023-07-31T05:27:37;99011.38;;;24.05;70.71
61474;BME280;53694;49.784;30.150;2023-07-31T05:28:38;99017.76;;;24.06;70.81
61474;BME280;53694;49.784;30.150;2023-07-31T05:29:40;99021.81;;;24.05;70.92
61474;BME280;53694;49.784;30.150;2023-07-31T05:30:42;99020.08;;;24.07;70.85
61474;BME280;53694;49.784;30.150;2023-07-31T05:31:43;99020.41;;;24.09;70.92
61474;BME280;53694;49.784;30.150;2023-07-31T05:32:45;99020.25;;;24.13;70.85